Aida — SBLI — position and weather

sailwx.info

Track history (hours):
 
Tides and Currents Weather Stations Pressure Air Temp Water Temp Dewpoint Dewpoint Depression Visibility Wind Speed Wind Dir Waves Ship Positions

Aida

Last reported at 2014-Jul-22 18:00 UTC. Time now 2014-Jul-22 19:51 UTC.
Position N 47°00' W 024°00'.

Length 199.1 m; beam 32.3 m; draft 9.5 m.

Type: Cargo ship. MMSI: 266211000.

Wind from 270 at 16 knots

Waves 1.0 meters (3 feet)

Barometer 1018.1 mb
Air temperature 16.2 ° C
Visibility: greater than 10.8 NM
Water temperature 16.4 ° C

Date/timePositionNaut miles runAvg speedWind from/ knotsBaromVisibWave heightAir tempDewpointWater temp
2014-Jul-22 18:00N 47°00' W 024°00'24113.4 270 / 161018.110.8 1.016.2 16.4
2014-Jul-22 00:00N 47°54' W 018°12'16943.7 210 / 141018.510.8 17.2 17.4
2014-Jul-21 20:08N 48°36' W 014°06'26210.0 200 / 161019.8 1.1 1.517.8 17.6
2014-Jul-20 18:00N 49°36' W 007°36'22014.7 310 / 101017.710.8 0.518.3 18.5
2014-Jul-20 03:05N 50°23' W 002°02'2212.5
2014-Jul-20 01:20N 50°29' W 001°29'912.0
2014-Jul-20 00:33N 50°31' W 001°15'1212.0
2014-Jul-19 23:33N 50°37' W 000°58'1111.4
2014-Jul-19 22:33N 50°46' W 001°09'1110.5
2014-Jul-19 21:33N 50°52' W 001°22'2 1.7
2014-Jul-19 20:33N 50°53' W 001°24'0 0.0
2014-Jul-19 19:33N 50°53' W 001°24'0 0.0
2014-Jul-19 18:33N 50°53' W 001°24'0 0.0
2014-Jul-19 17:33N 50°53' W 001°24'0 0.0
2014-Jul-19 16:33N 50°53' W 001°24'0 0.0
2014-Jul-19 15:33N 50°53' W 001°24'0 0.0
2014-Jul-19 14:33N 50°53' W 001°24'0 0.0
2014-Jul-19 13:33N 50°53' W 001°24'0 0.0
2014-Jul-19 12:33N 50°53' W 001°24'0 0.0
2014-Jul-19 11:33N 50°53' W 001°24'0 0.0
2014-Jul-19 10:33N 50°53' W 001°24'0 0.0
2014-Jul-19 09:34N 50°53' W 001°24'0 0.0
2014-Jul-19 08:33N 50°53' W 001°24'0 0.0
2014-Jul-19 07:33N 50°53' W 001°24'0 0.0
2014-Jul-19 06:33N 50°53' W 001°24'4 4.0
2014-Jul-19 05:33N 50°51' W 001°20'1212.0
2014-Jul-19 04:34N 50°44' W 001°04'1514.5
2014-Jul-19 03:33N 50°37' W 000°44'1817.7
2014-Jul-19 02:33N 50°32' W 000°17'1615.9
2014-Jul-19 01:33N 50°33' E 000°08'2115.1
2014-Jul-19 00:10N 50°40' E 000°39'1017.0
2014-Jul-18 23:33N 50°46' E 000°53'1818.2
2014-Jul-18 22:33N 50°57' E 001°15'1817.7
2014-Jul-18 21:33N 51°08' E 001°37'1515.2
2014-Jul-18 20:33N 51°20' E 001°53'1312.7
2014-Jul-18 19:34N 51°21' E 002°13'1514.6
2014-Jul-18 18:33N 51°23' E 002°36'1313.4
2014-Jul-18 17:33N 51°25' E 002°58'1110.7
2014-Jul-18 16:33N 51°20' E 003°13'0 0.0
2014-Jul-18 15:33N 51°20' E 003°13'1 1.2
2014-Jul-18 14:29N 51°19' E 003°14'0 0.0
2014-Jul-18 13:17N 51°19' E 003°14'0 0.0
2014-Jul-18 12:29N 51°19' E 003°14'0 0.0
2014-Jul-18 11:32N 51°19' E 003°14'0 0.0
2014-Jul-18 10:32N 51°19' E 003°14'0 0.0
2014-Jul-18 09:32N 51°19' E 003°14'0 0.0
2014-Jul-18 08:32N 51°19' E 003°14'0 0.0
2014-Jul-18 07:32N 51°19' E 003°14'0 0.0
2014-Jul-18 06:26N 51°19' E 003°14'0 0.0
2014-Jul-18 05:32N 51°19' E 003°14'0 0.0
2014-Jul-18 04:26N 51°19' E 003°14'0 0.0
2014-Jul-18 03:32N 51°19' E 003°14'0 0.0
2014-Jul-18 02:32N 51°19' E 003°14'0 0.0
2014-Jul-18 01:32N 51°19' E 003°14'0 0.0
2014-Jul-18 00:32N 51°19' E 003°14'0 0.0
2014-Jul-17 23:32N 51°19' E 003°14'0 0.0
2014-Jul-17 22:20N 51°19' E 003°14'0 0.0
2014-Jul-17 21:32N 51°19' E 003°14'0 0.0
2014-Jul-17 20:29N 51°19' E 003°14'0 0.0
2014-Jul-17 19:32N 51°19' E 003°14'0 0.0
2014-Jul-17 18:32N 51°19' E 003°14'0 0.0
2014-Jul-17 17:32N 51°19' E 003°14'0 0.0
2014-Jul-17 16:32N 51°19' E 003°14'0 0.0
2014-Jul-17 15:32N 51°19' E 003°14'0 0.0
2014-Jul-17 14:32N 51°19' E 003°14'0 0.0
2014-Jul-17 13:32N 51°19' E 003°14'0 0.0
2014-Jul-17 12:32N 51°19' E 003°14'0 0.0
2014-Jul-17 11:32N 51°19' E 003°14'0 0.0
2014-Jul-17 10:26N 51°19' E 003°14'0 0.0
2014-Jul-17 09:32N 51°19' E 003°14'0 0.0
2014-Jul-17 08:32N 51°19' E 003°14'0 0.0
2014-Jul-17 07:32N 51°19' E 003°14'0 0.0
2014-Jul-17 06:29N 51°19' E 003°14'0 0.0
2014-Jul-17 05:32N 51°19' E 003°14'0 0.0
2014-Jul-17 04:32N 51°19' E 003°14'0 0.0
2014-Jul-17 03:32N 51°19' E 003°14'0 0.0
2014-Jul-17 02:32N 51°19' E 003°14'0 0.0
2014-Jul-17 01:29N 51°19' E 003°14'0 0.0
2014-Jul-16 20:32N 51°19' E 003°14'0 0.0
2014-Jul-16 19:32N 51°19' E 003°14'0 0.0
2014-Jul-16 18:32N 51°19' E 003°14'0 0.0
2014-Jul-16 17:29N 51°19' E 003°14'0 0.0
2014-Jul-16 16:32N 51°19' E 003°14'0 0.0
2014-Jul-16 15:32N 51°19' E 003°14'1 1.0
2014-Jul-16 14:33N 51°20' E 003°13'0 0.5
2014-Jul-16 13:33N 51°20' E 003°13'6 6.5
2014-Jul-16 12:33N 51°24' E 003°05'1010.3
2014-Jul-16 11:33N 51°22' E 002°49'8 7.7
2014-Jul-16 10:33N 51°28' E 002°42'1616.3
2014-Jul-16 09:33N 51°44' E 002°44'2115.0
2014-Jul-16 08:08N 52°05' E 002°54'1514.2
2014-Jul-16 07:05N 52°17' E 003°08'713.9
2014-Jul-16 06:33N 52°23' E 003°15'1313.5
2014-Jul-16 05:34N 52°34' E 003°27'1313.5
2014-Jul-16 04:33N 52°45' E 003°41'1514.4
2014-Jul-16 03:32N 52°55' E 003°58'1615.7
2014-Jul-16 02:31N 53°06' E 004°18'1716.0
2014-Jul-16 01:26N 53°21' E 004°33'1315.0
2014-Jul-16 00:34N 53°30' E 004°47'1515.0
2014-Jul-15 23:34N 53°36' E 005°10'1413.9
2014-Jul-15 22:33N 53°40' E 005°33'1413.7
2014-Jul-15 21:33N 53°44' E 005°55'1413.9
2014-Jul-15 20:32N 53°48' E 006°18'4615.4
2014-Jul-15 17:34N 53°59' E 007°33'1413.5
2014-Jul-15 16:33N 53°52' E 007°53'1616.3
2014-Jul-15 15:34N 53°43' E 008°16'1313.0
2014-Jul-15 14:33N 53°35' E 008°32'1 0.6
2014-Jul-15 13:33N 53°34' E 008°33'0 0.4
2014-Jul-15 12:33N 53°35' E 008°33'0 0.0
2014-Jul-15 11:33N 53°35' E 008°33'0 0.0
2014-Jul-15 10:33N 53°35' E 008°33'0 0.0
2014-Jul-15 09:33N 53°35' E 008°33'0 0.0
2014-Jul-15 08:33N 53°35' E 008°33'0 0.0
2014-Jul-15 07:33N 53°35' E 008°33'0 0.0
2014-Jul-15 06:33N 53°35' E 008°33'0 0.0
2014-Jul-15 05:33N 53°35' E 008°33'0 0.0
2014-Jul-15 04:33N 53°35' E 008°33'0 0.0
2014-Jul-15 03:33N 53°35' E 008°33'0 0.0
2014-Jul-15 02:33N 53°35' E 008°33'0 0.0
2014-Jul-15 01:33N 53°35' E 008°33'0 0.0
2014-Jul-15 00:33N 53°35' E 008°33'0 0.0
2014-Jul-14 23:33N 53°35' E 008°33'0 0.0
2014-Jul-14 22:33N 53°35' E 008°33'0 0.0
2014-Jul-14 21:33N 53°35' E 008°33'0 0.0
2014-Jul-14 20:33N 53°35' E 008°33'0 0.0
2014-Jul-14 19:33N 53°35' E 008°33'0 0.0
2014-Jul-14 18:33N 53°35' E 008°33'0 0.0
2014-Jul-14 17:33N 53°35' E 008°33'0 0.0
2014-Jul-14 16:33N 53°35' E 008°33'0 0.0
2014-Jul-14 15:33N 53°35' E 008°33'0 0.0
2014-Jul-14 14:33N 53°35' E 008°33'0 0.0
2014-Jul-14 13:30N 53°35' E 008°33'0 0.0
2014-Jul-14 12:33N 53°35' E 008°33'0 0.0
2014-Jul-14 11:33N 53°35' E 008°33'0 0.0
2014-Jul-14 10:33N 53°35' E 008°33'0 0.0
2014-Jul-14 09:33N 53°35' E 008°33'0 0.0
2014-Jul-14 08:33N 53°35' E 008°33'0 0.0
2014-Jul-14 07:33N 53°35' E 008°33'0 0.0
2014-Jul-14 06:33N 53°35' E 008°33'0 0.0
2014-Jul-14 05:33N 53°35' E 008°33'0 0.0
2014-Jul-14 04:33N 53°35' E 008°33'0 0.0
2014-Jul-14 03:33N 53°35' E 008°33'0 0.0
2014-Jul-14 02:33N 53°35' E 008°33'0 0.0
2014-Jul-14 01:33N 53°35' E 008°33'0 0.0
2014-Jul-14 00:33N 53°35' E 008°33'0 0.0
2014-Jul-13 23:33N 53°35' E 008°33'0 0.0
2014-Jul-13 22:33N 53°35' E 008°33'0 0.0
2014-Jul-13 21:33N 53°35' E 008°33'0 0.0
2014-Jul-13 20:33N 53°35' E 008°33'0 0.0
2014-Jul-13 19:33N 53°35' E 008°33'0 0.0
2014-Jul-13 18:33N 53°35' E 008°33'0 0.0
2014-Jul-13 17:33N 53°35' E 008°33'0 0.0
2014-Jul-13 16:33N 53°35' E 008°33'0 0.0
2014-Jul-13 15:33N 53°35' E 008°33'0 0.5
2014-Jul-13 14:33N 53°34' E 008°33'1 0.7
2014-Jul-13 13:33N 53°33' E 008°34'1010.1
2014-Jul-13 12:33N 53°41' E 008°22'1616.5
2014-Jul-13 11:34N 53°51' E 008°00'1313.0
2014-Jul-13 10:33N 53°54' E 007°38'1916.0
2014-Jul-13 09:21N 53°50' E 007°06'7 8.3
2014-Jul-13 08:34N 53°49' E 006°56'9 8.3
2014-Jul-13 07:29N 53°47' E 006°41'10 8.3
2014-Jul-13 06:18N 53°45' E 006°24'1114.2
2014-Jul-13 05:33N 53°42' E 006°07'1615.6
2014-Jul-13 04:33N 53°37' E 005°43'1515.3
2014-Jul-13 03:34N 53°32' E 005°18'1514.6
2014-Jul-13 02:34N 53°27' E 004°55'1413.7
2014-Jul-13 01:34N 53°18' E 004°38'1514.6
2014-Jul-13 00:34N 53°06' E 004°26'1414.1
2014-Jul-12 23:33N 52°53' E 004°15'1414.0
2014-Jul-12 22:33N 52°42' E 004°01'1413.8
2014-Jul-12 21:33N 52°32' E 003°45'1313.5
2014-Jul-12 20:33N 52°23' E 003°30'1313.4
2014-Jul-12 19:33N 52°13' E 003°14'1413.8
2014-Jul-12 18:33N 52°03' E 002°58'  
Track history (hours):
 
Tides and Currents Weather Stations Pressure Air Temp Water Temp Dewpoint Dewpoint Depression Visibility Wind Speed Wind Dir Waves Ship Positions

Aida

Last reported at 2014-Jul-22 18:00 UTC. Time now 2014-Jul-22 19:51 UTC.
Position N 47°00' W 024°00'.

Length 199.1 m; beam 32.3 m; draft 9.5 m.

Type: Cargo ship. MMSI: 266211000.

Wind from 270 at 16 knots

Waves 1.0 meters (3 feet)

Barometer 1018.1 mb
Air temperature 16.2 ° C
Visibility: greater than 10.8 NM
Water temperature 16.4 ° C

Date/timePositionNaut miles runAvg speedWind from/ knotsBaromVisibWave heightAir tempDewpointWater temp
2014-Jul-22 18:00N 47°00' W 024°00'24113.4 270 / 161018.110.8 1.016.2 16.4
2014-Jul-22 00:00N 47°54' W 018°12'16943.7 210 / 141018.510.8 17.2 17.4
2014-Jul-21 20:08N 48°36' W 014°06'26210.0 200 / 161019.8 1.1 1.517.8 17.6
2014-Jul-20 18:00N 49°36' W 007°36'22014.7 310 / 101017.710.8 0.518.3 18.5
2014-Jul-20 03:05N 50°23' W 002°02'2212.5
2014-Jul-20 01:20N 50°29' W 001°29'912.0
2014-Jul-20 00:33N 50°31' W 001°15'1212.0
2014-Jul-19 23:33N 50°37' W 000°58'1111.4
2014-Jul-19 22:33N 50°46' W 001°09'1110.5
2014-Jul-19 21:33N 50°52' W 001°22'2 1.7
2014-Jul-19 20:33N 50°53' W 001°24'0 0.0
2014-Jul-19 19:33N 50°53' W 001°24'0 0.0
2014-Jul-19 18:33N 50°53' W 001°24'0 0.0
2014-Jul-19 17:33N 50°53' W 001°24'0 0.0
2014-Jul-19 16:33N 50°53' W 001°24'0 0.0
2014-Jul-19 15:33N 50°53' W 001°24'0 0.0
2014-Jul-19 14:33N 50°53' W 001°24'0 0.0
2014-Jul-19 13:33N 50°53' W 001°24'0 0.0
2014-Jul-19 12:33N 50°53' W 001°24'0 0.0
2014-Jul-19 11:33N 50°53' W 001°24'0 0.0
2014-Jul-19 10:33N 50°53' W 001°24'0 0.0
2014-Jul-19 09:34N 50°53' W 001°24'0 0.0
2014-Jul-19 08:33N 50°53' W 001°24'0 0.0
2014-Jul-19 07:33N 50°53' W 001°24'0 0.0
2014-Jul-19 06:33N 50°53' W 001°24'4 4.0
2014-Jul-19 05:33N 50°51' W 001°20'1212.0
2014-Jul-19 04:34N 50°44' W 001°04'1514.5
2014-Jul-19 03:33N 50°37' W 000°44'1817.7
2014-Jul-19 02:33N 50°32' W 000°17'1615.9
2014-Jul-19 01:33N 50°33' E 000°08'2115.1
2014-Jul-19 00:10N 50°40' E 000°39'1017.0
2014-Jul-18 23:33N 50°46' E 000°53'1818.2
2014-Jul-18 22:33N 50°57' E 001°15'1817.7
2014-Jul-18 21:33N 51°08' E 001°37'1515.2
2014-Jul-18 20:33N 51°20' E 001°53'1312.7
2014-Jul-18 19:34N 51°21' E 002°13'1514.6
2014-Jul-18 18:33N 51°23' E 002°36'1313.4
2014-Jul-18 17:33N 51°25' E 002°58'1110.7
2014-Jul-18 16:33N 51°20' E 003°13'0 0.0
2014-Jul-18 15:33N 51°20' E 003°13'1 1.2
2014-Jul-18 14:29N 51°19' E 003°14'0 0.0
2014-Jul-18 13:17N 51°19' E 003°14'0 0.0
2014-Jul-18 12:29N 51°19' E 003°14'0 0.0
2014-Jul-18 11:32N 51°19' E 003°14'0 0.0
2014-Jul-18 10:32N 51°19' E 003°14'0 0.0
2014-Jul-18 09:32N 51°19' E 003°14'0 0.0
2014-Jul-18 08:32N 51°19' E 003°14'0 0.0
2014-Jul-18 07:32N 51°19' E 003°14'0 0.0
2014-Jul-18 06:26N 51°19' E 003°14'0 0.0
2014-Jul-18 05:32N 51°19' E 003°14'0 0.0
2014-Jul-18 04:26N 51°19' E 003°14'0 0.0
2014-Jul-18 03:32N 51°19' E 003°14'0 0.0
2014-Jul-18 02:32N 51°19' E 003°14'0 0.0
2014-Jul-18 01:32N 51°19' E 003°14'0 0.0
2014-Jul-18 00:32N 51°19' E 003°14'0 0.0
2014-Jul-17 23:32N 51°19' E 003°14'0 0.0
2014-Jul-17 22:20N 51°19' E 003°14'0 0.0
2014-Jul-17 21:32N 51°19' E 003°14'0 0.0
2014-Jul-17 20:29N 51°19' E 003°14'0 0.0
2014-Jul-17 19:32N 51°19' E 003°14'0 0.0
2014-Jul-17 18:32N 51°19' E 003°14'0 0.0
2014-Jul-17 17:32N 51°19' E 003°14'0 0.0
2014-Jul-17 16:32N 51°19' E 003°14'0 0.0
2014-Jul-17 15:32N 51°19' E 003°14'0 0.0
2014-Jul-17 14:32N 51°19' E 003°14'0 0.0
2014-Jul-17 13:32N 51°19' E 003°14'0 0.0
2014-Jul-17 12:32N 51°19' E 003°14'0 0.0
2014-Jul-17 11:32N 51°19' E 003°14'0 0.0
2014-Jul-17 10:26N 51°19' E 003°14'0 0.0
2014-Jul-17 09:32N 51°19' E 003°14'0 0.0
2014-Jul-17 08:32N 51°19' E 003°14'0 0.0
2014-Jul-17 07:32N 51°19' E 003°14'0 0.0
2014-Jul-17 06:29N 51°19' E 003°14'0 0.0
2014-Jul-17 05:32N 51°19' E 003°14'0 0.0
2014-Jul-17 04:32N 51°19' E 003°14'0 0.0
2014-Jul-17 03:32N 51°19' E 003°14'0 0.0
2014-Jul-17 02:32N 51°19' E 003°14'0 0.0
2014-Jul-17 01:29N 51°19' E 003°14'0 0.0
2014-Jul-16 20:32N 51°19' E 003°14'0 0.0
2014-Jul-16 19:32N 51°19' E 003°14'0 0.0
2014-Jul-16 18:32N 51°19' E 003°14'0 0.0
2014-Jul-16 17:29N 51°19' E 003°14'0 0.0
2014-Jul-16 16:32N 51°19' E 003°14'0 0.0
2014-Jul-16 15:32N 51°19' E 003°14'1 1.0
2014-Jul-16 14:33N 51°20' E 003°13'0 0.5
2014-Jul-16 13:33N 51°20' E 003°13'6 6.5
2014-Jul-16 12:33N 51°24' E 003°05'1010.3
2014-Jul-16 11:33N 51°22' E 002°49'8 7.7
2014-Jul-16 10:33N 51°28' E 002°42'1616.3
2014-Jul-16 09:33N 51°44' E 002°44'2115.0
2014-Jul-16 08:08N 52°05' E 002°54'1514.2
2014-Jul-16 07:05N 52°17' E 003°08'713.9
2014-Jul-16 06:33N 52°23' E 003°15'1313.5
2014-Jul-16 05:34N 52°34' E 003°27'1313.5
2014-Jul-16 04:33N 52°45' E 003°41'1514.4
2014-Jul-16 03:32N 52°55' E 003°58'1615.7
2014-Jul-16 02:31N 53°06' E 004°18'1716.0
2014-Jul-16 01:26N 53°21' E 004°33'1315.0
2014-Jul-16 00:34N 53°30' E 004°47'1515.0
2014-Jul-15 23:34N 53°36' E 005°10'1413.9
2014-Jul-15 22:33N 53°40' E 005°33'1413.7
2014-Jul-15 21:33N 53°44' E 005°55'1413.9
2014-Jul-15 20:32N 53°48' E 006°18'4615.4
2014-Jul-15 17:34N 53°59' E 007°33'1413.5
2014-Jul-15 16:33N 53°52' E 007°53'1616.3
2014-Jul-15 15:34N 53°43' E 008°16'1313.0
2014-Jul-15 14:33N 53°35' E 008°32'1 0.6
2014-Jul-15 13:33N 53°34' E 008°33'0 0.4
2014-Jul-15 12:33N 53°35' E 008°33'0 0.0
2014-Jul-15 11:33N 53°35' E 008°33'0 0.0
2014-Jul-15 10:33N 53°35' E 008°33'0 0.0
2014-Jul-15 09:33N 53°35' E 008°33'0 0.0
2014-Jul-15 08:33N 53°35' E 008°33'0 0.0
2014-Jul-15 07:33N 53°35' E 008°33'0 0.0
2014-Jul-15 06:33N 53°35' E 008°33'0 0.0
2014-Jul-15 05:33N 53°35' E 008°33'0 0.0
2014-Jul-15 04:33N 53°35' E 008°33'0 0.0
2014-Jul-15 03:33N 53°35' E 008°33'0 0.0
2014-Jul-15 02:33N 53°35' E 008°33'0 0.0
2014-Jul-15 01:33N 53°35' E 008°33'0 0.0
2014-Jul-15 00:33N 53°35' E 008°33'0 0.0
2014-Jul-14 23:33N 53°35' E 008°33'0 0.0
2014-Jul-14 22:33N 53°35' E 008°33'0 0.0
2014-Jul-14 21:33N 53°35' E 008°33'0 0.0
2014-Jul-14 20:33N 53°35' E 008°33'0 0.0
2014-Jul-14 19:33N 53°35' E 008°33'0 0.0
2014-Jul-14 18:33N 53°35' E 008°33'0 0.0
2014-Jul-14 17:33N 53°35' E 008°33'0 0.0
2014-Jul-14 16:33N 53°35' E 008°33'0 0.0
2014-Jul-14 15:33N 53°35' E 008°33'0 0.0
2014-Jul-14 14:33N 53°35' E 008°33'0 0.0
2014-Jul-14 13:30N 53°35' E 008°33'0 0.0
2014-Jul-14 12:33N 53°35' E 008°33'0 0.0
2014-Jul-14 11:33N 53°35' E 008°33'0 0.0
2014-Jul-14 10:33N 53°35' E 008°33'0 0.0
2014-Jul-14 09:33N 53°35' E 008°33'0 0.0
2014-Jul-14 08:33N 53°35' E 008°33'0 0.0
2014-Jul-14 07:33N 53°35' E 008°33'0 0.0
2014-Jul-14 06:33N 53°35' E 008°33'0 0.0
2014-Jul-14 05:33N 53°35' E 008°33'0 0.0
2014-Jul-14 04:33N 53°35' E 008°33'0 0.0
2014-Jul-14 03:33N 53°35' E 008°33'0 0.0
2014-Jul-14 02:33N 53°35' E 008°33'0 0.0
2014-Jul-14 01:33N 53°35' E 008°33'0 0.0
2014-Jul-14 00:33N 53°35' E 008°33'0 0.0
2014-Jul-13 23:33N 53°35' E 008°33'0 0.0
2014-Jul-13 22:33N 53°35' E 008°33'0 0.0
2014-Jul-13 21:33N 53°35' E 008°33'0 0.0
2014-Jul-13 20:33N 53°35' E 008°33'0 0.0
2014-Jul-13 19:33N 53°35' E 008°33'0 0.0
2014-Jul-13 18:33N 53°35' E 008°33'0 0.0
2014-Jul-13 17:33N 53°35' E 008°33'0 0.0
2014-Jul-13 16:33N 53°35' E 008°33'0 0.0
2014-Jul-13 15:33N 53°35' E 008°33'0 0.5
2014-Jul-13 14:33N 53°34' E 008°33'1 0.7
2014-Jul-13 13:33N 53°33' E 008°34'1010.1
2014-Jul-13 12:33N 53°41' E 008°22'1616.5
2014-Jul-13 11:34N 53°51' E 008°00'1313.0
2014-Jul-13 10:33N 53°54' E 007°38'1916.0
2014-Jul-13 09:21N 53°50' E 007°06'7 8.3
2014-Jul-13 08:34N 53°49' E 006°56'9 8.3
2014-Jul-13 07:29N 53°47' E 006°41'10 8.3
2014-Jul-13 06:18N 53°45' E 006°24'1114.2
2014-Jul-13 05:33N 53°42' E 006°07'1615.6
2014-Jul-13 04:33N 53°37' E 005°43'1515.3
2014-Jul-13 03:34N 53°32' E 005°18'1514.6
2014-Jul-13 02:34N 53°27' E 004°55'1413.7
2014-Jul-13 01:34N 53°18' E 004°38'1514.6
2014-Jul-13 00:34N 53°06' E 004°26'1414.1
2014-Jul-12 23:33N 52°53' E 004°15'1414.0
2014-Jul-12 22:33N 52°42' E 004°01'1413.8
2014-Jul-12 21:33N 52°32' E 003°45'1313.5
2014-Jul-12 20:33N 52°23' E 003°30'1313.4
2014-Jul-12 19:33N 52°13' E 003°14'1413.8
2014-Jul-12 18:33N 52°03' E 002°58'  

Dump ship's entire track history